Minturn, Arkansas
Current Conditions -  °F | °C
As of 2:35 AM on Saturday 20 Dec 2014 (Local Time) from KARG Reporting Station
Overcast Overcast  
Wind Chill: 33°   Ceiling: 3400
Heat Index: 37°   Visibility: 5mi
Dew Point: 32°   Wind: 6mph
Humidity: 81%   Direction: 40°NE
Pressure: 30.24"   Gusts: NA
Location:  35.97°N, 91.03°W
Report Text: KARG 200835Z AUTO 04005KT 5SM OVC034 03/00 A3024 RMK AO1
Loading
Personal Weather Stations






























Interactive Weather Map New forecast layout! Learn more

10-Day Weather Forecast

Advertisements
Track Severe Weather on mobile